Terminal Aerodrome Forecast
Issued by NWS

Home | Current Version | Previous Version | Text Only | Print | Product List | Glossary On
Versions: 1 2 3 4 5 6 7 8 9 10 11 12 13 14 15 16 17 18 19 20 21 22 23
000
FTPQ31 PGUM 011748
TAFGUM
TAF

TAF
PGSN 011748Z 0118/0218 33011KT P6SM VCSH SCT020 SCT060 BKN090
     FM012300 33012G20KT P6SM VCSH SCT020 BKN040 OVC120
      TEMPO 0123/0203 34025G35KT 3SM +SHRA BKN020 OVC040
     FM020300 35025G35KT 5SM SHRA VCTS SCT006 BKN020CB OVC040
     FM020700 31045G65KT 1SM +SHRA VCTS BKN006CB OVC015
     FM021000 26055G75KT 1SM +SHRA VCTS BKN006CB OVC015
     FM021500 21025G45KT 3SM +SHRA VCTS SCT006CB BKN015 OVC040=

USA.gov is the U.S. government's official web portal to all federal, state and local government web resources and services.